sensor_id;sensor_type;location;lat;lon;timestamp;temperature;humidity
15554;DHT22;7878;44.632;10.942;2024-02-23T00:01:06;15.00;93.60
15554;DHT22;7878;44.632;10.942;2024-02-23T00:03:31;15.00;93.40
15554;DHT22;7878;44.632;10.942;2024-02-23T00:05:58;14.90;93.40
15554;DHT22;7878;44.632;10.942;2024-02-23T00:08:24;14.90;93.30
15554;DHT22;7878;44.632;10.942;2024-02-23T00:10:49;14.90;93.20
15554;DHT22;7878;44.632;10.942;2024-02-23T00:13:15;14.90;93.30
15554;DHT22;7878;44.632;10.942;2024-02-23T00:15:41;14.80;92.90
15554;DHT22;7878;44.632;10.942;2024-02-23T00:18:06;14.80;93.20
15554;DHT22;7878;44.632;10.942;2024-02-23T00:20:33;14.90;93.30
15554;DHT22;7878;44.632;10.942;2024-02-23T00:22:59;14.90;93.20
15554;DHT22;7878;44.632;10.942;2024-02-23T00:25:25;14.80;93.30
15554;DHT22;7878;44.632;10.942;2024-02-23T00:27:50;14.80;93.20
15554;DHT22;7878;44.632;10.942;2024-02-23T00:30:16;14.90;93.00
15554;DHT22;7878;44.632;10.942;2024-02-23T00:32:42;14.80;92.80
15554;DHT22;7878;44.632;10.942;2024-02-23T00:35:07;14.80;92.80
15554;DHT22;7878;44.632;10.942;2024-02-23T00:37:33;14.80;92.90
15554;DHT22;7878;44.632;10.942;2024-02-23T00:40:04;14.80;92.90
15554;DHT22;7878;44.632;10.942;2024-02-23T00:42:30;14.90;92.70
15554;DHT22;7878;44.632;10.942;2024-02-23T00:44:56;14.90;92.90
15554;DHT22;7878;44.632;10.942;2024-02-23T00:47:22;14.90;93.00
15554;DHT22;7878;44.632;10.942;2024-02-23T00:49:47;15.00;93.00
15554;DHT22;7878;44.632;10.942;2024-02-23T00:52:13;15.00;92.70
15554;DHT22;7878;44.632;10.942;2024-02-23T00:54:39;15.00;92.90
15554;DHT22;7878;44.632;10.942;2024-02-23T00:57:05;15.00;92.80
15554;DHT22;7878;44.632;10.942;2024-02-23T00:59:30;15.00;93.10
15554;DHT22;7878;44.632;10.942;2024-02-23T01:01:56;15.00;93.00
15554;DHT22;7878;44.632;10.942;2024-02-23T01:04:22;15.00;92.70
15554;DHT22;7878;44.632;10.942;2024-02-23T01:06:47;15.00;92.60
15554;DHT22;7878;44.632;10.942;2024-02-23T01:09:14;15.00;92.60
15554;DHT22;7878;44.632;10.942;2024-02-23T01:11:42;15.00;92.60
15554;DHT22;7878;44.632;10.942;2024-02-23T01:14:08;15.00;92.30
15554;DHT22;7878;44.632;10.942;2024-02-23T01:16:33;15.00;92.10
15554;DHT22;7878;44.632;10.942;2024-02-23T01:18:59;15.00;92.00
15554;DHT22;7878;44.632;10.942;2024-02-23T01:21:25;15.10;91.70
15554;DHT22;7878;44.632;10.942;2024-02-23T01:23:50;15.10;91.60
15554;DHT22;7878;44.632;10.942;2024-02-23T01:26:16;15.10;91.60
15554;DHT22;7878;44.632;10.942;2024-02-23T01:28:41;15.10;91.60
15554;DHT22;7878;44.632;10.942;2024-02-23T01:31:11;15.10;91.60
15554;DHT22;7878;44.632;10.942;2024-02-23T01:33:38;15.10;91.70
15554;DHT22;7878;44.632;10.942;2024-02-23T01:36:05;15.10;91.80
15554;DHT22;7878;44.632;10.942;2024-02-23T01:38:31;15.10;91.90
15554;DHT22;7878;44.632;10.942;2024-02-23T01:40:59;15.10;91.80
15554;DHT22;7878;44.632;10.942;2024-02-23T01:43:24;15.20;91.70
15554;DHT22;7878;44.632;10.942;2024-02-23T01:45:51;15.20;91.90
15554;DHT22;7878;44.632;10.942;2024-02-23T01:48:17;15.20;91.70
15554;DHT22;7878;44.632;10.942;2024-02-23T01:50:43;15.20;91.80
15554;DHT22;7878;44.632;10.942;2024-02-23T01:53:10;15.20;91.80
15554;DHT22;7878;44.632;10.942;2024-02-23T01:55:39;15.10;91.70
15554;DHT22;7878;44.632;10.942;2024-02-23T01:58:05;15.20;92.30
15554;DHT22;7878;44.632;10.942;2024-02-23T02:00:31;15.10;91.80
15554;DHT22;7878;44.632;10.942;2024-02-23T02:02:57;15.20;91.70
15554;DHT22;7878;44.632;10.942;2024-02-23T02:05:23;15.10;91.30
15554;DHT22;7878;44.632;10.942;2024-02-23T02:07:51;15.10;92.00
15554;DHT22;7878;44.632;10.942;2024-02-23T02:10:20;15.20;92.10
15554;DHT22;7878;44.632;10.942;2024-02-23T02:12:46;15.20;91.90
15554;DHT22;7878;44.632;10.942;2024-02-23T02:15:12;15.20;91.90
15554;DHT22;7878;44.632;10.942;2024-02-23T02:17:38;15.20;92.00
15554;DHT22;7878;44.632;10.942;2024-02-23T02:20:04;15.20;91.80
15554;DHT22;7878;44.632;10.942;2024-02-23T02:22:32;15.20;92.00
15554;DHT22;7878;44.632;10.942;2024-02-23T02:24:58;15.10;91.80
15554;DHT22;7878;44.632;10.942;2024-02-23T02:27:24;15.20;92.30
15554;DHT22;7878;44.632;10.942;2024-02-23T02:29:50;15.20;92.30
15554;DHT22;7878;44.632;10.942;2024-02-23T02:32:16;15.20;92.20
15554;DHT22;7878;44.632;10.942;2024-02-23T02:34:42;15.20;92.50
15554;DHT22;7878;44.632;10.942;2024-02-23T02:37:08;15.20;92.40
15554;DHT22;7878;44.632;10.942;2024-02-23T02:39:34;15.10;92.10
15554;DHT22;7878;44.632;10.942;2024-02-23T02:41:59;15.10;92.20
15554;DHT22;7878;44.632;10.942;2024-02-23T02:44:25;15.10;92.30
15554;DHT22;7878;44.632;10.942;2024-02-23T02:46:58;15.20;92.30
15554;DHT22;7878;44.632;10.942;2024-02-23T02:49:24;15.10;92.00
15554;DHT22;7878;44.632;10.942;2024-02-23T02:51:50;15.10;91.90
15554;DHT22;7878;44.632;10.942;2024-02-23T02:54:16;15.10;91.60
15554;DHT22;7878;44.632;10.942;2024-02-23T02:56:43;15.10;91.70
15554;DHT22;7878;44.632;10.942;2024-02-23T02:59:09;15.10;91.60
15554;DHT22;7878;44.632;10.942;2024-02-23T03:01:35;15.00;91.80
15554;DHT22;7878;44.632;10.942;2024-02-23T03:04:01;15.00;91.80
15554;DHT22;7878;44.632;10.942;2024-02-23T03:06:27;15.10;91.70
15554;DHT22;7878;44.632;10.942;2024-02-23T03:08:52;15.10;91.50
15554;DHT22;7878;44.632;10.942;2024-02-23T03:11:18;15.00;91.20
15554;DHT22;7878;44.632;10.942;2024-02-23T03:13:44;15.00;91.50
15554;DHT22;7878;44.632;10.942;2024-02-23T03:16:17;15.00;91.00
15554;DHT22;7878;44.632;10.942;2024-02-23T03:18:43;15.00;91.20
15554;DHT22;7878;44.632;10.942;2024-02-23T03:21:09;15.00;91.20
15554;DHT22;7878;44.632;10.942;2024-02-23T03:23:35;15.00;91.60
15554;DHT22;7878;44.632;10.942;2024-02-23T03:26:01;15.00;91.60
15554;DHT22;7878;44.632;10.942;2024-02-23T03:28:28;15.00;91.60
15554;DHT22;7878;44.632;10.942;2024-02-23T03:30:53;15.00;91.30
15554;DHT22;7878;44.632;10.942;2024-02-23T03:33:19;15.00;91.70
15554;DHT22;7878;44.632;10.942;2024-02-23T03:35:45;15.00;91.70
15554;DHT22;7878;44.632;10.942;2024-02-23T03:38:10;15.00;91.80
15554;DHT22;7878;44.632;10.942;2024-02-23T03:40:36;15.00;92.10
15554;DHT22;7878;44.632;10.942;2024-02-23T03:43:02;15.00;92.20
15554;DHT22;7878;44.632;10.942;2024-02-23T03:45:28;15.00;92.20
15554;DHT22;7878;44.632;10.942;2024-02-23T03:47:54;15.00;92.20
15554;DHT22;7878;44.632;10.942;2024-02-23T03:50:19;15.00;92.30
15554;DHT22;7878;44.632;10.942;2024-02-23T03:52:45;15.00;92.30
15554;DHT22;7878;44.632;10.942;2024-02-23T03:55:11;15.00;92.30
15554;DHT22;7878;44.632;10.942;2024-02-23T03:57:37;15.10;92.20
15554;DHT22;7878;44.632;10.942;2024-02-23T04:00:03;15.10;91.70
15554;DHT22;7878;44.632;10.942;2024-02-23T04:02:29;15.20;91.80
15554;DHT22;7878;44.632;10.942;2024-02-23T04:04:55;15.20;91.90
15554;DHT22;7878;44.632;10.942;2024-02-23T04:07:21;15.20;92.20
15554;DHT22;7878;44.632;10.942;2024-02-23T04:09:47;15.10;92.30
15554;DHT22;7878;44.632;10.942;2024-02-23T04:12:18;15.10;92.30
15554;DHT22;7878;44.632;10.942;2024-02-23T04:14:45;15.10;92.50
15554;DHT22;7878;44.632;10.942;2024-02-23T04:17:11;15.10;92.30
15554;DHT22;7878;44.632;10.942;2024-02-23T04:19:37;15.10;92.40
15554;DHT22;7878;44.632;10.942;2024-02-23T04:22:05;15.10;92.40
15554;DHT22;7878;44.632;10.942;2024-02-23T04:24:31;15.10;92.60
15554;DHT22;7878;44.632;10.942;2024-02-23T04:26:57;15.10;92.50
15554;DHT22;7878;44.632;10.942;2024-02-23T04:29:22;15.10;92.60
15554;DHT22;7878;44.632;10.942;2024-02-23T04:31:48;15.10;92.50
15554;DHT22;7878;44.632;10.942;2024-02-23T04:34:15;15.10;92.80
15554;DHT22;7878;44.632;10.942;2024-02-23T04:36:41;15.10;92.60
15554;DHT22;7878;44.632;10.942;2024-02-23T04:39:07;15.10;92.70
15554;DHT22;7878;44.632;10.942;2024-02-23T04:41:33;15.10;92.70
15554;DHT22;7878;44.632;10.942;2024-02-23T04:43:59;15.10;92.70
15554;DHT22;7878;44.632;10.942;2024-02-23T04:46:26;15.10;92.70
15554;DHT22;7878;44.632;10.942;2024-02-23T04:48:52;15.10;92.70
15554;DHT22;7878;44.632;10.942;2024-02-23T04:51:18;15.10;92.90
15554;DHT22;7878;44.632;10.942;2024-02-23T04:53:44;15.10;92.90
15554;DHT22;7878;44.632;10.942;2024-02-23T04:56:10;15.10;93.10
15554;DHT22;7878;44.632;10.942;2024-02-23T04:58:35;15.10;93.00
15554;DHT22;7878;44.632;10.942;2024-02-23T05:01:03;15.00;93.00
15554;DHT22;7878;44.632;10.942;2024-02-23T05:03:29;15.00;93.00
15554;DHT22;7878;44.632;10.942;2024-02-23T05:05:54;15.00;92.80
15554;DHT22;7878;44.632;10.942;2024-02-23T05:08:21;15.10;92.90
15554;DHT22;7878;44.632;10.942;2024-02-23T05:10:47;15.10;92.70
15554;DHT22;7878;44.632;10.942;2024-02-23T05:13:13;15.10;92.80
15554;DHT22;7878;44.632;10.942;2024-02-23T05:15:39;15.20;92.70
15554;DHT22;7878;44.632;10.942;2024-02-23T05:18:05;15.20;92.70
15554;DHT22;7878;44.632;10.942;2024-02-23T05:20:30;15.20;92.60
15554;DHT22;7878;44.632;10.942;2024-02-23T05:22:56;15.20;92.70
15554;DHT22;7878;44.632;10.942;2024-02-23T05:25:22;15.20;92.70
15554;DHT22;7878;44.632;10.942;2024-02-23T05:27:47;15.30;92.70
15554;DHT22;7878;44.632;10.942;2024-02-23T05:30:13;15.30;92.80
15554;DHT22;7878;44.632;10.942;2024-02-23T05:32:39;15.30;92.70
15554;DHT22;7878;44.632;10.942;2024-02-23T05:35:05;15.40;92.80
15554;DHT22;7878;44.632;10.942;2024-02-23T05:37:31;15.40;92.80
15554;DHT22;7878;44.632;10.942;2024-02-23T05:39:57;15.40;92.80
15554;DHT22;7878;44.632;10.942;2024-02-23T05:42:25;15.40;92.70
15554;DHT22;7878;44.632;10.942;2024-02-23T05:44:51;15.40;93.00
15554;DHT22;7878;44.632;10.942;2024-02-23T05:47:17;15.40;93.00
15554;DHT22;7878;44.632;10.942;2024-02-23T05:49:43;15.30;93.00
15554;DHT22;7878;44.632;10.942;2024-02-23T05:52:09;15.30;93.10
15554;DHT22;7878;44.632;10.942;2024-02-23T05:54:35;15.30;93.20
15554;DHT22;7878;44.632;10.942;2024-02-23T05:57:01;15.30;93.20
15554;DHT22;7878;44.632;10.942;2024-02-23T05:59:26;15.30;93.30
15554;DHT22;7878;44.632;10.942;2024-02-23T06:01:52;15.30;93.50
15554;DHT22;7878;44.632;10.942;2024-02-23T06:04:22;15.30;93.40
15554;DHT22;7878;44.632;10.942;2024-02-23T06:06:48;15.30;93.40
15554;DHT22;7878;44.632;10.942;2024-02-23T06:09:14;15.30;93.40
15554;DHT22;7878;44.632;10.942;2024-02-23T06:11:39;15.20;93.30
15554;DHT22;7878;44.632;10.942;2024-02-23T06:14:05;15.20;93.50
15554;DHT22;7878;44.632;10.942;2024-02-23T06:16:31;15.20;93.50
15554;DHT22;7878;44.632;10.942;2024-02-23T06:18:56;15.20;93.60
15554;DHT22;7878;44.632;10.942;2024-02-23T06:21:23;15.20;93.70
15554;DHT22;7878;44.632;10.942;2024-02-23T06:23:49;15.20;93.70
15554;DHT22;7878;44.632;10.942;2024-02-23T06:26:15;15.10;93.70
15554;DHT22;7878;44.632;10.942;2024-02-23T06:28:41;15.10;93.70
15554;DHT22;7878;44.632;10.942;2024-02-23T06:31:09;15.10;93.70
15554;DHT22;7878;44.632;10.942;2024-02-23T06:33:35;15.10;93.60
15554;DHT22;7878;44.632;10.942;2024-02-23T06:36:01;15.20;93.60
15554;DHT22;7878;44.632;10.942;2024-02-23T06:38:27;15.20;93.50
15554;DHT22;7878;44.632;10.942;2024-02-23T06:40:54;15.30;93.50
15554;DHT22;7878;44.632;10.942;2024-02-23T06:43:21;15.30;93.60
15554;DHT22;7878;44.632;10.942;2024-02-23T06:45:46;15.30;93.80
15554;DHT22;7878;44.632;10.942;2024-02-23T06:48:12;15.30;93.50
15554;DHT22;7878;44.632;10.942;2024-02-23T06:50:37;15.40;93.60
15554;DHT22;7878;44.632;10.942;2024-02-23T06:53:03;15.40;93.60
15554;DHT22;7878;44.632;10.942;2024-02-23T06:55:29;15.40;93.60
15554;DHT22;7878;44.632;10.942;2024-02-23T06:57:55;15.40;93.60
15554;DHT22;7878;44.632;10.942;2024-02-23T07:00:21;15.40;93.70
15554;DHT22;7878;44.632;10.942;2024-02-23T07:02:49;15.40;93.90
15554;DHT22;7878;44.632;10.942;2024-02-23T07:05:15;15.40;94.00
15554;DHT22;7878;44.632;10.942;2024-02-23T07:07:40;15.40;93.90
15554;DHT22;7878;44.632;10.942;2024-02-23T07:10:07;15.40;93.80
15554;DHT22;7878;44.632;10.942;2024-02-23T07:12:33;15.50;93.90
15554;DHT22;7878;44.632;10.942;2024-02-23T07:14:59;15.50;94.00
15554;DHT22;7878;44.632;10.942;2024-02-23T07:17:25;15.50;94.10
15554;DHT22;7878;44.632;10.942;2024-02-23T07:19:50;15.60;94.10
15554;DHT22;7878;44.632;10.942;2024-02-23T07:22:17;15.60;94.20
15554;DHT22;7878;44.632;10.942;2024-02-23T07:24:48;15.70;94.20
15554;DHT22;7878;44.632;10.942;2024-02-23T07:27:14;15.80;94.30
15554;DHT22;7878;44.632;10.942;2024-02-23T07:29:40;15.80;94.20
15554;DHT22;7878;44.632;10.942;2024-02-23T07:32:06;15.80;94.00
15554;DHT22;7878;44.632;10.942;2024-02-23T07:34:32;15.80;94.00
15554;DHT22;7878;44.632;10.942;2024-02-23T07:36:57;15.80;94.00
15554;DHT22;7878;44.632;10.942;2024-02-23T07:39:23;15.80;93.80
15554;DHT22;7878;44.632;10.942;2024-02-23T07:41:49;15.90;93.80
15554;DHT22;7878;44.632;10.942;2024-02-23T07:44:14;15.90;94.00
15554;DHT22;7878;44.632;10.942;2024-02-23T07:46:40;16.00;94.10
15554;DHT22;7878;44.632;10.942;2024-02-23T07:49:07;16.00;94.00
15554;DHT22;7878;44.632;10.942;2024-02-23T07:51:33;16.00;94.10
15554;DHT22;7878;44.632;10.942;2024-02-23T07:53:58;16.10;94.30
15554;DHT22;7878;44.632;10.942;2024-02-23T07:56:24;16.10;94.30
15554;DHT22;7878;44.632;10.942;2024-02-23T07:58:50;16.10;94.50
15554;DHT22;7878;44.632;10.942;2024-02-23T08:01:15;16.10;94.50
15554;DHT22;7878;44.632;10.942;2024-02-23T08:03:41;16.10;94.40
15554;DHT22;7878;44.632;10.942;2024-02-23T08:06:07;16.20;94.40
15554;DHT22;7878;44.632;10.942;2024-02-23T08:08:33;16.20;94.20
15554;DHT22;7878;44.632;10.942;2024-02-23T08:11:04;16.30;94.30
15554;DHT22;7878;44.632;10.942;2024-02-23T08:13:30;16.40;94.30
15554;DHT22;7878;44.632;10.942;2024-02-23T08:15:57;16.40;94.10
15554;DHT22;7878;44.632;10.942;2024-02-23T08:18:23;16.30;94.20
15554;DHT22;7878;44.632;10.942;2024-02-23T08:20:49;16.20;94.50
15554;DHT22;7878;44.632;10.942;2024-02-23T08:23:15;16.10;94.70
15554;DHT22;7878;44.632;10.942;2024-02-23T08:25:41;16.00;95.10
15554;DHT22;7878;44.632;10.942;2024-02-23T08:28:07;15.80;95.50
15554;DHT22;7878;44.632;10.942;2024-02-23T08:30:33;15.60;96.00
15554;DHT22;7878;44.632;10.942;2024-02-23T08:32:58;15.30;96.50
15554;DHT22;7878;44.632;10.942;2024-02-23T08:35:25;15.20;96.90
15554;DHT22;7878;44.632;10.942;2024-02-23T08:37:51;15.10;97.40
15554;DHT22;7878;44.632;10.942;2024-02-23T08:40:17;15.00;97.40
15554;DHT22;7878;44.632;10.942;2024-02-23T08:42:42;15.00;97.90
15554;DHT22;7878;44.632;10.942;2024-02-23T08:45:08;14.90;98.50
15554;DHT22;7878;44.632;10.942;2024-02-23T08:47:38;14.80;98.70
15554;DHT22;7878;44.632;10.942;2024-02-23T08:50:05;14.60;99.20
15554;DHT22;7878;44.632;10.942;2024-02-23T08:52:31;14.70;99.50
15554;DHT22;7878;44.632;10.942;2024-02-23T08:54:56;14.70;99.90
15554;DHT22;7878;44.632;10.942;2024-02-23T08:57:22;14.80;99.90
15554;DHT22;7878;44.632;10.942;2024-02-23T08:59:51;14.80;99.90
15554;DHT22;7878;44.632;10.942;2024-02-23T09:02:17;14.90;99.90
15554;DHT22;7878;44.632;10.942;2024-02-23T09:04:44;15.00;99.90
15554;DHT22;7878;44.632;10.942;2024-02-23T09:07:11;15.00;99.90
15554;DHT22;7878;44.632;10.942;2024-02-23T09:09:37;14.90;99.90
15554;DHT22;7878;44.632;10.942;2024-02-23T09:12:02;14.90;99.90
15554;DHT22;7878;44.632;10.942;2024-02-23T09:14:29;14.90;99.90
15554;DHT22;7878;44.632;10.942;2024-02-23T09:16:55;14.80;99.90
15554;DHT22;7878;44.632;10.942;2024-02-23T09:19:20;14.60;99.90
15554;DHT22;7878;44.632;10.942;2024-02-23T09:21:46;14.50;99.90
15554;DHT22;7878;44.632;10.942;2024-02-23T09:24:12;14.40;99.90
15554;DHT22;7878;44.632;10.942;2024-02-23T09:26:38;14.30;99.90
15554;DHT22;7878;44.632;10.942;2024-02-23T09:29:04;14.10;99.90
15554;DHT22;7878;44.632;10.942;2024-02-23T09:31:30;14.00;99.90
15554;DHT22;7878;44.632;10.942;2024-02-23T09:33:57;13.90;99.90
15554;DHT22;7878;44.632;10.942;2024-02-23T09:36:23;13.70;99.90
15554;DHT22;7878;44.632;10.942;2024-02-23T09:38:50;13.80;99.90
15554;DHT22;7878;44.632;10.942;2024-02-23T09:41:23;13.70;99.90
15554;DHT22;7878;44.632;10.942;2024-02-23T09:43:49;13.80;99.90
15554;DHT22;7878;44.632;10.942;2024-02-23T09:46:18;13.80;99.90
15554;DHT22;7878;44.632;10.942;2024-02-23T09:48:45;13.80;99.90
15554;DHT22;7878;44.632;10.942;2024-02-23T09:51:12;13.70;99.90
15554;DHT22;7878;44.632;10.942;2024-02-23T09:53:38;13.70;99.90
15554;DHT22;7878;44.632;10.942;2024-02-23T09:56:05;13.70;99.90
15554;DHT22;7878;44.632;10.942;2024-02-23T09:58:36;13.60;99.90
15554;DHT22;7878;44.632;10.942;2024-02-23T10:01:02;13.60;99.90
15554;DHT22;7878;44.632;10.942;2024-02-23T10:03:29;13.70;99.90
15554;DHT22;7878;44.632;10.942;2024-02-23T10:05:58;13.70;99.90
15554;DHT22;7878;44.632;10.942;2024-02-23T10:08:25;13.60;99.90
15554;DHT22;7878;44.632;10.942;2024-02-23T10:10:51;13.60;99.90
15554;DHT22;7878;44.632;10.942;2024-02-23T10:13:20;13.60;99.90
15554;DHT22;7878;44.632;10.942;2024-02-23T10:15:50;13.70;99.90
15554;DHT22;7878;44.632;10.942;2024-02-23T10:18:16;13.70;99.90
15554;DHT22;7878;44.632;10.942;2024-02-23T10:20:42;13.60;99.90
15554;DHT22;7878;44.632;10.942;2024-02-23T10:23:08;13.60;99.90
15554;DHT22;7878;44.632;10.942;2024-02-23T10:25:35;13.60;99.90
15554;DHT22;7878;44.632;10.942;2024-02-23T10:28:05;13.50;99.90
15554;DHT22;7878;44.632;10.942;2024-02-23T10:30:31;13.60;99.90
15554;DHT22;7878;44.632;10.942;2024-02-23T10:32:57;13.50;99.90
15554;DHT22;7878;44.632;10.942;2024-02-23T10:35:24;13.40;99.90
15554;DHT22;7878;44.632;10.942;2024-02-23T10:37:51;13.40;99.90
15554;DHT22;7878;44.632;10.942;2024-02-23T10:40:19;13.40;99.90
15554;DHT22;7878;44.632;10.942;2024-02-23T10:42:46;13.50;99.90
15554;DHT22;7878;44.632;10.942;2024-02-23T10:45:20;13.40;99.90
15554;DHT22;7878;44.632;10.942;2024-02-23T10:47:51;13.40;99.90
15554;DHT22;7878;44.632;10.942;2024-02-23T10:50:17;13.40;99.90
15554;DHT22;7878;44.632;10.942;2024-02-23T10:52:45;13.40;99.90
15554;DHT22;7878;44.632;10.942;2024-02-23T10:55:14;13.50;99.90
15554;DHT22;7878;44.632;10.942;2024-02-23T10:57:40;13.50;99.90
15554;DHT22;7878;44.632;10.942;2024-02-23T11:00:08;13.50;99.90
15554;DHT22;7878;44.632;10.942;2024-02-23T11:02:43;13.50;99.90
15554;DHT22;7878;44.632;10.942;2024-02-23T11:05:11;13.50;99.90
15554;DHT22;7878;44.632;10.942;2024-02-23T11:07:40;13.60;99.90
15554;DHT22;7878;44.632;10.942;2024-02-23T11:10:06;13.60;99.90
15554;DHT22;7878;44.632;10.942;2024-02-23T11:12:34;13.60;99.90
15554;DHT22;7878;44.632;10.942;2024-02-23T11:15:01;13.60;99.90
15554;DHT22;7878;44.632;10.942;2024-02-23T11:17:29;13.60;99.90
15554;DHT22;7878;44.632;10.942;2024-02-23T11:19:56;13.60;99.90
15554;DHT22;7878;44.632;10.942;2024-02-23T11:22:31;13.50;99.90
15554;DHT22;7878;44.632;10.942;2024-02-23T11:25:03;13.50;99.90
15554;DHT22;7878;44.632;10.942;2024-02-23T11:27:33;13.50;99.90
15554;DHT22;7878;44.632;10.942;2024-02-23T11:30:04;13.50;99.90
15554;DHT22;7878;44.632;10.942;2024-02-23T11:32:49;13.60;99.90
15554;DHT22;7878;44.632;10.942;2024-02-23T11:35:19;13.60;99.90
15554;DHT22;7878;44.632;10.942;2024-02-23T11:37:52;13.60;99.90
15554;DHT22;7878;44.632;10.942;2024-02-23T11:40:31;13.60;99.90
15554;DHT22;7878;44.632;10.942;2024-02-23T11:42:58;13.60;99.90
15554;DHT22;7878;44.632;10.942;2024-02-23T11:45:25;13.60;99.90
15554;DHT22;7878;44.632;10.942;2024-02-23T11:47:53;13.60;99.90
15554;DHT22;7878;44.632;10.942;2024-02-23T11:50:18;13.50;99.90
15554;DHT22;7878;44.632;10.942;2024-02-23T11:52:47;13.60;99.90
15554;DHT22;7878;44.632;10.942;2024-02-23T11:55:21;13.50;99.90
15554;DHT22;7878;44.632;10.942;2024-02-23T11:57:50;13.60;99.90
15554;DHT22;7878;44.632;10.942;2024-02-23T12:00:16;13.50;99.90
15554;DHT22;7878;44.632;10.942;2024-02-23T12:02:43;13.40;99.90
15554;DHT22;7878;44.632;10.942;2024-02-23T12:05:10;13.50;99.90
15554;DHT22;7878;44.632;10.942;2024-02-23T12:07:36;13.50;99.90
15554;DHT22;7878;44.632;10.942;2024-02-23T12:10:01;13.60;99.90
15554;DHT22;7878;44.632;10.942;2024-02-23T12:12:29;13.50;99.90
15554;DHT22;7878;44.632;10.942;2024-02-23T12:14:54;13.50;99.90
15554;DHT22;7878;44.632;10.942;2024-02-23T12:17:20;13.50;99.90
15554;DHT22;7878;44.632;10.942;2024-02-23T12:19:46;13.40;99.90
15554;DHT22;7878;44.632;10.942;2024-02-23T12:22:11;13.50;99.90
15554;DHT22;7878;44.632;10.942;2024-02-23T12:24:38;13.50;99.90
15554;DHT22;7878;44.632;10.942;2024-02-23T12:27:06;13.50;99.90
15554;DHT22;7878;44.632;10.942;2024-02-23T12:29:31;13.50;99.90
15554;DHT22;7878;44.632;10.942;2024-02-23T12:32:04;13.50;99.90
15554;DHT22;7878;44.632;10.942;2024-02-23T12:34:30;13.60;99.90
15554;DHT22;7878;44.632;10.942;2024-02-23T12:36:55;13.60;99.90
15554;DHT22;7878;44.632;10.942;2024-02-23T12:39:21;13.50;99.90
15554;DHT22;7878;44.632;10.942;2024-02-23T12:41:47;13.60;99.90
15554;DHT22;7878;44.632;10.942;2024-02-23T12:44:13;13.60;99.90
15554;DHT22;7878;44.632;10.942;2024-02-23T12:46:40;13.60;99.90
15554;DHT22;7878;44.632;10.942;2024-02-23T12:49:05;13.60;99.90
15554;DHT22;7878;44.632;10.942;2024-02-23T12:51:31;13.60;99.90
15554;DHT22;7878;44.632;10.942;2024-02-23T12:53:57;13.60;99.90
15554;DHT22;7878;44.632;10.942;2024-02-23T12:56:22;13.70;99.90
15554;DHT22;7878;44.632;10.942;2024-02-23T12:58:49;13.60;99.90
15554;DHT22;7878;44.632;10.942;2024-02-23T13:01:15;13.50;99.90
15554;DHT22;7878;44.632;10.942;2024-02-23T13:03:41;13.60;99.90
15554;DHT22;7878;44.632;10.942;2024-02-23T13:06:07;13.50;99.90
15554;DHT22;7878;44.632;10.942;2024-02-23T13:08:33;13.50;99.90
15554;DHT22;7878;44.632;10.942;2024-02-23T13:11:00;13.60;99.90
15554;DHT22;7878;44.632;10.942;2024-02-23T13:13:26;13.50;99.90
15554;DHT22;7878;44.632;10.942;2024-02-23T13:15:56;13.50;99.90
15554;DHT22;7878;44.632;10.942;2024-02-23T13:18:22;13.50;99.90
15554;DHT22;7878;44.632;10.942;2024-02-23T13:20:48;13.60;99.90
15554;DHT22;7878;44.632;10.942;2024-02-23T13:23:14;13.60;99.90
15554;DHT22;7878;44.632;10.942;2024-02-23T13:25:42;13.60;99.90
15554;DHT22;7878;44.632;10.942;2024-02-23T13:28:08;13.60;99.90
15554;DHT22;7878;44.632;10.942;2024-02-23T13:30:35;13.50;99.90
15554;DHT22;7878;44.632;10.942;2024-02-23T13:33:01;13.50;99.90
15554;DHT22;7878;44.632;10.942;2024-02-23T13:35:27;13.50;99.90
15554;DHT22;7878;44.632;10.942;2024-02-23T13:37:53;13.50;99.90
15554;DHT22;7878;44.632;10.942;2024-02-23T13:40:19;13.50;99.90
15554;DHT22;7878;44.632;10.942;2024-02-23T13:42:45;13.50;99.90
15554;DHT22;7878;44.632;10.942;2024-02-23T13:45:20;13.50;99.90
15554;DHT22;7878;44.632;10.942;2024-02-23T13:48:02;13.50;99.90
15554;DHT22;7878;44.632;10.942;2024-02-23T13:50:29;13.60;99.90
15554;DHT22;7878;44.632;10.942;2024-02-23T13:52:55;13.50;99.90
15554;DHT22;7878;44.632;10.942;2024-02-23T13:55:21;13.50;99.90
15554;DHT22;7878;44.632;10.942;2024-02-23T13:57:47;13.40;99.90
15554;DHT22;7878;44.632;10.942;2024-02-23T14:00:15;13.40;99.90
15554;DHT22;7878;44.632;10.942;2024-02-23T14:02:41;13.40;99.90
15554;DHT22;7878;44.632;10.942;2024-02-23T14:05:07;13.40;99.90
15554;DHT22;7878;44.632;10.942;2024-02-23T14:07:35;13.30;99.90
15554;DHT22;7878;44.632;10.942;2024-02-23T14:10:02;13.30;99.90
15554;DHT22;7878;44.632;10.942;2024-02-23T14:12:29;13.20;99.90
15554;DHT22;7878;44.632;10.942;2024-02-23T14:14:55;13.20;99.90
15554;DHT22;7878;44.632;10.942;2024-02-23T14:17:20;13.30;99.90
15554;DHT22;7878;44.632;10.942;2024-02-23T14:19:46;13.20;99.90
15554;DHT22;7878;44.632;10.942;2024-02-23T14:22:12;13.20;99.90
15554;DHT22;7878;44.632;10.942;2024-02-23T14:24:38;13.20;99.90
15554;DHT22;7878;44.632;10.942;2024-02-23T14:27:03;13.30;99.90
15554;DHT22;7878;44.632;10.942;2024-02-23T14:29:29;13.30;99.90
15554;DHT22;7878;44.632;10.942;2024-02-23T14:31:55;13.40;99.90
15554;DHT22;7878;44.632;10.942;2024-02-23T14:34:20;13.30;99.90
15554;DHT22;7878;44.632;10.942;2024-02-23T14:36:49;13.40;99.90
15554;DHT22;7878;44.632;10.942;2024-02-23T14:39:15;13.40;99.90
15554;DHT22;7878;44.632;10.942;2024-02-23T14:41:41;13.40;99.90
15554;DHT22;7878;44.632;10.942;2024-02-23T14:44:07;13.40;99.90
15554;DHT22;7878;44.632;10.942;2024-02-23T14:46:33;13.30;99.90
15554;DHT22;7878;44.632;10.942;2024-02-23T14:48:59;13.40;99.90
15554;DHT22;7878;44.632;10.942;2024-02-23T14:51:24;13.40;99.90
15554;DHT22;7878;44.632;10.942;2024-02-23T14:53:50;13.30;99.90
15554;DHT22;7878;44.632;10.942;2024-02-23T14:56:16;13.40;99.90
15554;DHT22;7878;44.632;10.942;2024-02-23T14:58:42;13.40;99.90
15554;DHT22;7878;44.632;10.942;2024-02-23T15:01:07;13.40;99.90
15554;DHT22;7878;44.632;10.942;2024-02-23T15:03:34;13.40;99.90
15554;DHT22;7878;44.632;10.942;2024-02-23T15:06:00;13.40;99.90
15554;DHT22;7878;44.632;10.942;2024-02-23T15:08:27;13.40;99.90
15554;DHT22;7878;44.632;10.942;2024-02-23T15:10:53;13.40;99.90
15554;DHT22;7878;44.632;10.942;2024-02-23T15:13:19;13.40;99.90
15554;DHT22;7878;44.632;10.942;2024-02-23T15:15:45;13.40;99.90
15554;DHT22;7878;44.632;10.942;2024-02-23T15:18:11;13.30;99.90
15554;DHT22;7878;44.632;10.942;2024-02-23T15:20:36;13.40;99.90
15554;DHT22;7878;44.632;10.942;2024-02-23T15:23:02;13.40;99.90
15554;DHT22;7878;44.632;10.942;2024-02-23T15:25:28;13.40;99.90